createdAt,value
2023-04-01T00:01:05.680Z,100463.09
2023-04-01T00:03:34.567Z,100461.47
2023-04-01T00:06:03.256Z,100468.91
2023-04-01T00:08:30.924Z,100474.75
2023-04-01T00:10:58.308Z,100472.88
2023-04-01T00:13:27.722Z,100479.09
2023-04-01T00:15:56.359Z,100480.75
2023-04-01T00:18:24.500Z,100457.78
2023-04-01T00:20:52.817Z,100478.91
2023-04-01T00:23:21.193Z,100465.97
2023-04-01T00:25:50.695Z,100472.38
2023-04-01T00:28:20.414Z,100473.72
2023-04-01T00:30:48.402Z,100472.16
2023-04-01T00:33:16.899Z,100452.69
2023-04-01T00:35:45.767Z,100486.47
2023-04-01T00:38:13.481Z,100479.47
2023-04-01T00:40:46.413Z,100460.00
2023-04-01T00:43:20.566Z,100497.50
2023-04-01T00:45:50.418Z,100485.44
2023-04-01T00:48:39.242Z,100477.19
2023-04-01T00:51:18.594Z,100490.91
2023-04-01T00:53:49.870Z,100492.97
2023-04-01T00:56:22.277Z,100499.09
2023-04-01T00:58:59.701Z,100499.16
2023-04-01T01:01:29.117Z,100499.16
2023-04-01T01:03:56.512Z,100489.03
2023-04-01T01:07:07.495Z,100496.03
2023-04-01T01:10:06.085Z,100480.00
2023-04-01T01:12:39.433Z,100507.91
2023-04-01T01:15:34.350Z,100493.06
2023-04-01T01:18:21.961Z,100506.13
2023-04-01T01:21:07.821Z,100505.94
2023-04-01T01:23:46.875Z,100499.41
2023-04-01T01:26:38.680Z,100502.63
2023-04-01T01:29:27.008Z,100500.75
2023-04-01T01:31:54.352Z,100503.16
2023-04-01T01:34:53.219Z,100497.16
2023-04-01T01:37:23.873Z,100472.31
2023-04-01T01:39:56.441Z,100503.75
2023-04-01T01:42:26.950Z,100492.59
2023-04-01T01:44:56.606Z,100503.47
2023-04-01T01:47:26.426Z,100509.88
2023-04-01T01:49:56.438Z,100506.00
2023-04-01T01:52:24.805Z,100492.16
2023-04-01T01:54:57.439Z,100490.03
2023-04-01T01:57:32.915Z,100505.41
2023-04-01T02:00:14.784Z,100510.53
2023-04-01T02:02:47.409Z,100511.47
2023-04-01T02:05:22.326Z,100504.06
2023-04-01T02:07:55.125Z,100513.06
2023-04-01T02:10:26.246Z,100510.13
2023-04-01T02:12:59.296Z,100523.34
2023-04-01T02:15:31.939Z,100521.78
2023-04-01T02:18:00.061Z,100513.50
2023-04-01T02:20:29.274Z,100519.34
2023-04-01T02:23:01.006Z,100516.06
2023-04-01T02:25:31.938Z,100514.63
2023-04-01T02:28:01.243Z,100524.53
2023-04-01T02:30:30.936Z,100525.31
2023-04-01T02:33:00.039Z,100527.84
2023-04-01T02:35:28.228Z,100518.66
2023-04-01T02:37:56.539Z,100522.28
2023-04-01T02:40:24.014Z,100515.72
2023-04-01T02:42:51.886Z,100527.13
2023-04-01T02:45:19.226Z,100540.25
2023-04-01T02:47:46.636Z,100525.19
2023-04-01T02:50:13.875Z,100541.38
2023-04-01T02:52:41.074Z,100523.66
2023-04-01T02:55:08.802Z,100539.00
2023-04-01T02:57:36.188Z,100525.44
2023-04-01T03:00:03.865Z,100521.56
2023-04-01T03:02:31.684Z,100535.47
2023-04-01T03:04:58.948Z,100539.34
2023-04-01T03:07:26.265Z,100514.75
2023-04-01T03:09:53.581Z,100535.09
2023-04-01T03:12:20.973Z,100524.97
2023-04-01T03:14:51.405Z,100544.78
2023-04-01T03:17:18.543Z,100528.88
2023-04-01T03:19:46.300Z,100519.09
2023-04-01T03:22:14.085Z,100543.25
2023-04-01T03:24:41.389Z,100537.84
2023-04-01T03:27:08.545Z,100517.59
2023-04-01T03:29:35.970Z,100492.44
2023-04-01T03:32:03.537Z,100524.75
2023-04-01T03:34:30.705Z,100540.25
2023-04-01T03:36:58.867Z,100534.09
2023-04-01T03:39:26.495Z,100534.44
2023-04-01T03:41:53.983Z,100555.94
2023-04-01T03:44:21.494Z,100554.03
2023-04-01T03:46:52.055Z,100521.09
2023-04-01T03:49:19.287Z,100546.91
2023-04-01T03:51:46.828Z,100534.22
2023-04-01T03:54:14.404Z,100546.53
2023-04-01T03:56:42.316Z,100549.66
2023-04-01T03:59:09.725Z,100556.66
2023-04-01T04:01:37.040Z,100557.00
2023-04-01T04:04:04.695Z,100559.28
2023-04-01T04:06:32.137Z,100529.75
2023-04-01T04:08:59.202Z,100541.47
2023-04-01T04:11:27.460Z,100540.56
2023-04-01T04:13:56.046Z,100563.47
2023-04-01T04:16:24.070Z,100543.31
2023-04-01T04:18:57.464Z,100557.31
2023-04-01T04:21:24.697Z,100546.34
2023-04-01T04:23:52.566Z,100570.75
2023-04-01T04:26:21.024Z,100570.63
2023-04-01T04:28:56.099Z,100572.88
2023-04-01T04:31:25.649Z,100567.69
2023-04-01T04:33:55.859Z,100576.03
2023-04-01T04:36:24.099Z,100579.16
2023-04-01T04:38:52.669Z,100575.53
2023-04-01T04:41:23.200Z,100546.00
2023-04-01T04:43:56.839Z,100558.91
2023-04-01T04:46:26.200Z,100574.09
2023-04-01T04:49:07.344Z,100585.53
2023-04-01T04:51:36.879Z,100567.41
2023-04-01T04:54:06.093Z,100588.56
2023-04-01T04:56:46.331Z,100589.00
2023-04-01T04:59:13.813Z,100586.69
2023-04-01T05:01:53.584Z,100593.88
2023-04-01T05:04:22.654Z,100575.25
2023-04-01T05:06:50.459Z,100591.00
2023-04-01T05:09:18.396Z,100564.31
2023-04-01T05:11:47.594Z,100591.16
2023-04-01T05:14:16.837Z,100589.16
2023-04-01T05:16:51.690Z,100570.81
2023-04-01T05:19:22.912Z,100594.94
2023-04-01T05:21:51.160Z,100593.72
2023-04-01T05:24:18.253Z,100579.13
2023-04-01T05:26:45.554Z,100598.94
2023-04-01T05:29:12.862Z,100590.16
2023-04-01T05:31:40.802Z,100605.31
2023-04-01T05:34:08.764Z,100579.66
2023-04-01T05:36:36.825Z,100608.28
2023-04-01T05:39:04.550Z,100585.97
2023-04-01T05:41:33.096Z,100589.59
2023-04-01T05:44:00.346Z,100574.25
2023-04-01T05:46:53.853Z,100589.41
2023-04-01T05:49:23.318Z,100590.69
2023-04-01T05:51:52.331Z,100567.47
2023-04-01T05:54:20.984Z,100588.81
2023-04-01T05:56:48.755Z,100556.69
2023-04-01T05:59:16.415Z,100568.66
2023-04-01T06:01:43.512Z,100572.97
2023-04-01T06:04:19.647Z,100580.97
2023-04-01T06:06:47.404Z,100575.16
2023-04-01T06:09:16.328Z,100567.13
2023-04-01T06:12:09.584Z,100573.41
2023-04-01T06:15:00.260Z,100570.91
2023-04-01T06:17:31.553Z,100575.06
2023-04-01T06:20:13.570Z,100567.25
2023-04-01T06:22:40.752Z,100579.63
2023-04-01T06:25:24.190Z,100563.75
2023-04-01T06:28:03.681Z,100575.19
2023-04-01T06:31:03.560Z,100578.84
2023-04-01T06:34:19.302Z,100579.63
2023-04-01T06:36:49.727Z,100571.72
2023-04-01T06:39:43.663Z,100577.06
2023-04-01T06:42:36.192Z,100566.53
2023-04-01T06:45:19.367Z,100560.00
2023-04-01T06:48:07.946Z,100559.53
2023-04-01T06:51:22.410Z,100551.38
2023-04-01T06:53:59.282Z,100563.59
2023-04-01T06:57:42.385Z,100564.03
2023-04-01T07:00:28.570Z,100548.31
2023-04-01T07:03:06.976Z,100558.78
2023-04-01T07:05:37.386Z,100559.78
2023-04-01T07:08:10.422Z,100542.09
2023-04-01T07:10:39.001Z,100550.69
2023-04-01T07:13:32.237Z,100544.56
2023-04-01T07:16:29.404Z,100557.09
2023-04-01T07:19:09.881Z,100554.47
2023-04-01T07:21:59.256Z,100541.72
2023-04-01T07:24:44.344Z,100538.06
2023-04-01T07:27:12.713Z,100543.50
2023-04-01T07:29:41.458Z,100546.00
2023-04-01T07:32:19.613Z,100545.00
2023-04-01T07:35:10.825Z,100543.81
2023-04-01T07:37:49.885Z,100519.22
2023-04-01T07:40:33.264Z,100531.94
2023-04-01T07:43:09.639Z,100531.31
2023-04-01T07:45:59.158Z,100533.47
2023-04-01T07:48:36.734Z,100532.66
2023-04-01T07:51:18.156Z,100540.75
2023-04-01T07:53:54.461Z,100537.75
2023-04-01T07:57:04.327Z,100541.53
2023-04-01T07:59:52.007Z,100539.38
2023-04-01T08:02:54.651Z,100535.13
2023-04-01T08:05:35.705Z,100541.88
2023-04-01T08:08:18.285Z,100540.00
2023-04-01T08:11:21.424Z,100533.91
2023-04-01T08:14:20.488Z,100517.53
2023-04-01T08:17:28.944Z,100522.69
2023-04-01T08:20:01.217Z,100523.53
2023-04-01T08:22:41.762Z,100521.25
2023-04-01T08:25:28.161Z,100505.09
2023-04-01T08:28:06.054Z,100516.38
2023-04-01T08:30:49.314Z,100504.38
2023-04-01T08:33:33.054Z,100490.16
2023-04-01T08:36:32.337Z,100508.63
2023-04-01T08:39:32.344Z,100479.13
2023-04-01T08:42:37.208Z,100511.63
2023-04-01T08:45:50.265Z,100498.03
2023-04-01T08:48:44.364Z,100492.47
2023-04-01T08:51:25.645Z,100498.47
2023-04-01T08:53:52.771Z,100495.75
2023-04-01T08:56:46.538Z,100496.44
2023-04-01T08:59:35.931Z,100502.25
2023-04-01T09:02:24.110Z,100514.03
2023-04-01T09:05:03.316Z,100500.41
2023-04-01T09:07:56.961Z,100505.31
2023-04-01T09:11:04.082Z,100507.41
2023-04-01T09:14:06.480Z,100496.34
2023-04-01T09:17:01.988Z,100504.94
2023-04-01T09:20:01.195Z,100499.41
2023-04-01T09:22:43.018Z,100499.50
2023-04-01T09:25:28.665Z,100491.84
2023-04-01T09:28:11.738Z,100505.94
2023-04-01T09:31:16.331Z,100502.72
2023-04-01T09:34:23.676Z,100495.09
2023-04-01T09:37:32.615Z,100493.50
2023-04-01T09:40:22.367Z,100502.31
2023-04-01T09:43:27.436Z,100501.13
2023-04-01T09:46:10.815Z,100498.66
2023-04-01T09:48:52.704Z,100487.97
2023-04-01T09:51:26.203Z,100495.97
2023-04-01T09:54:25.165Z,100491.75
2023-04-01T09:56:56.234Z,100491.75
2023-04-01T09:59:44.736Z,100494.91
2023-04-01T10:02:37.728Z,100500.34
2023-04-01T10:05:31.867Z,100488.00
2023-04-01T10:08:26.601Z,100500.81
2023-04-01T10:11:24.023Z,100501.44
2023-04-01T10:13:55.020Z,100488.84
2023-04-01T10:16:40.626Z,100493.41
2023-04-01T10:19:18.753Z,100499.03
2023-04-01T10:21:46.075Z,100489.88
2023-04-01T10:24:46.237Z,100499.78
2023-04-01T10:27:31.221Z,100484.69
2023-04-01T10:30:22.164Z,100494.25
2023-04-01T10:33:16.754Z,100482.81
2023-04-01T10:35:45.577Z,100481.97
2023-04-01T10:38:31.793Z,100474.56
2023-04-01T10:41:11.878Z,100477.22
2023-04-01T10:44:14.773Z,100492.94
2023-04-01T10:46:59.916Z,100488.00
2023-04-01T10:49:57.535Z,100482.69
2023-04-01T10:52:46.150Z,100489.75
2023-04-01T10:55:52.330Z,100481.03
2023-04-01T10:59:03.780Z,100485.50
2023-04-01T11:02:31.787Z,100488.09
2023-04-01T11:05:32.906Z,100489.44
2023-04-01T11:08:25.594Z,100470.50
2023-04-01T11:11:16.143Z,100475.69
2023-04-01T11:13:50.271Z,100467.38
2023-04-01T11:16:33.291Z,100461.78
2023-04-01T11:19:16.691Z,100467.16
2023-04-01T11:22:10.753Z,100394.41
2023-04-01T11:25:03.092Z,100465.72
2023-04-01T11:27:55.949Z,100467.56
2023-04-01T11:30:45.051Z,100452.66
2023-04-01T11:33:35.394Z,100432.72
2023-04-01T11:36:09.090Z,100452.47
2023-04-01T11:39:11.517Z,100457.72
2023-04-01T11:42:08.763Z,100449.91
2023-04-01T11:45:14.738Z,100450.78
2023-04-01T11:47:49.383Z,100448.56
2023-04-01T11:50:33.071Z,100449.28
2023-04-01T11:53:24.591Z,100424.16
2023-04-01T11:56:15.991Z,100420.31
2023-04-01T11:58:59.026Z,100435.34
2023-04-01T12:01:43.806Z,100442.97
2023-04-01T12:04:25.083Z,100448.25
2023-04-01T12:07:12.306Z,100436.75
2023-04-01T12:09:55.557Z,100397.75
2023-04-01T12:12:58.063Z,100426.97
2023-04-01T12:15:40.087Z,100424.41
2023-04-01T12:18:30.449Z,100428.91
2023-04-01T12:21:21.847Z,100413.47
2023-04-01T12:24:07.547Z,100422.94
2023-04-01T12:26:46.648Z,100405.75
2023-04-01T12:29:38.299Z,100412.16
2023-04-01T12:32:34.542Z,100408.22
2023-04-01T12:35:07.799Z,100411.75
2023-04-01T12:37:42.795Z,100407.38
2023-04-01T12:40:11.239Z,100403.63
2023-04-01T12:42:52.816Z,100400.88
2023-04-01T12:45:28.980Z,100402.19
2023-04-01T12:48:18.133Z,100406.06
2023-04-01T12:51:27.974Z,100399.75
2023-04-01T12:54:14.071Z,100387.13
2023-04-01T12:57:06.267Z,100393.63
2023-04-01T12:59:33.293Z,100385.78
2023-04-01T13:02:13.589Z,100390.38
2023-04-01T13:05:12.366Z,100385.22
2023-04-01T13:07:51.430Z,100388.25
2023-04-01T13:10:29.151Z,100392.06
2023-04-01T13:13:31.840Z,100367.88
2023-04-01T13:16:18.128Z,100370.25
2023-04-01T13:19:10.019Z,100383.03
2023-04-01T13:21:52.674Z,100371.97
2023-04-01T13:24:33.986Z,100382.09
2023-04-01T13:27:15.637Z,100383.03
2023-04-01T13:29:53.877Z,100362.84
2023-04-01T13:32:43.872Z,100353.28
2023-04-01T13:35:17.356Z,100378.00
2023-04-01T13:38:03.124Z,100370.25
2023-04-01T13:41:02.853Z,100348.34
2023-04-01T13:43:43.489Z,100361.69
2023-04-01T13:46:29.836Z,100362.03
2023-04-01T13:48:59.971Z,100372.19
2023-04-01T13:52:28.156Z,100364.84
2023-04-01T13:55:17.017Z,100370.06
2023-04-01T13:58:19.395Z,100366.06
2023-04-01T14:01:01.795Z,100362.69
2023-04-01T14:04:00.740Z,100345.69
2023-04-01T14:07:05.488Z,100365.16
2023-04-01T14:09:51.323Z,100356.09
2023-04-01T14:12:27.516Z,100366.31
2023-04-01T14:14:55.078Z,100364.69
2023-04-01T14:17:45.793Z,100362.00
2023-04-01T14:20:31.908Z,100371.81
2023-04-01T14:23:06.482Z,100368.16
2023-04-01T14:25:56.334Z,100357.41
2023-04-01T14:28:40.234Z,100351.66
2023-04-01T14:31:28.724Z,100373.81
2023-04-01T14:34:26.767Z,100376.94
2023-04-01T14:37:09.155Z,100364.97
2023-04-01T14:39:58.795Z,100349.06
2023-04-01T14:42:28.759Z,100361.97
2023-04-01T14:45:14.407Z,100359.22
2023-04-01T14:48:18.893Z,100368.69
2023-04-01T14:50:51.495Z,100364.56
2023-04-01T14:53:24.576Z,100371.06
2023-04-01T14:56:03.932Z,100367.53
2023-04-01T14:58:51.381Z,100376.47
2023-04-01T15:01:35.594Z,100354.09
2023-04-01T15:04:39.642Z,100382.59
2023-04-01T15:07:27.971Z,100376.38
2023-04-01T15:10:23.825Z,100362.22
2023-04-01T15:13:11.852Z,100357.66
2023-04-01T15:16:10.181Z,100370.63
2023-04-01T15:19:08.609Z,100371.16
2023-04-01T15:22:09.045Z,100369.59
2023-04-01T15:24:47.830Z,100372.97
2023-04-01T15:27:43.262Z,100373.09
2023-04-01T15:30:29.048Z,100352.50
2023-04-01T15:33:08.430Z,100370.34
2023-04-01T15:35:51.371Z,100350.22
2023-04-01T15:38:39.891Z,100372.94
2023-04-01T15:41:21.702Z,100349.28
2023-04-01T15:43:53.052Z,100364.91
2023-04-01T15:46:42.334Z,100383.63
2023-04-01T15:49:14.321Z,100363.88
2023-04-01T15:52:05.381Z,100378.09
2023-04-01T15:55:00.880Z,100384.44
2023-04-01T15:57:47.985Z,100375.97
2023-04-01T16:00:28.463Z,100383.75
2023-04-01T16:03:18.070Z,100393.16
2023-04-01T16:05:51.406Z,100387.38
2023-04-01T16:08:18.515Z,100386.69
2023-04-01T16:10:54.484Z,100370.72
2023-04-01T16:13:45.394Z,100388.47
2023-04-01T16:16:44.485Z,100388.94
2023-04-01T16:19:27.722Z,100390.22
2023-04-01T16:22:02.700Z,100383.41
2023-04-01T16:24:52.446Z,100385.75
2023-04-01T16:27:28.521Z,100391.00
2023-04-01T16:30:03.948Z,100392.09
2023-04-01T16:32:42.677Z,100383.22
2023-04-01T16:35:26.525Z,100392.16
2023-04-01T16:38:05.461Z,100397.66
2023-04-01T16:40:38.582Z,100392.50
2023-04-01T16:43:29.281Z,100378.50
2023-04-01T16:46:42.173Z,100391.38
2023-04-01T16:49:12.299Z,100395.53
2023-04-01T16:52:15.261Z,100398.00
2023-04-01T16:55:01.619Z,100389.41
2023-04-01T16:57:44.765Z,100390.22
2023-04-01T17:00:18.984Z,100388.41
2023-04-01T17:03:13.255Z,100387.09
2023-04-01T17:05:44.378Z,100387.91
2023-04-01T17:08:40.596Z,100371.06
2023-04-01T17:11:26.141Z,100389.88
2023-04-01T17:14:31.802Z,100387.22
2023-04-01T17:17:26.366Z,100392.69
2023-04-01T17:20:10.406Z,100389.38
2023-04-01T17:22:54.207Z,100395.00
2023-04-01T17:25:43.501Z,100395.81
2023-04-01T17:28:17.333Z,100392.84
2023-04-01T17:31:32.453Z,100390.03
2023-04-01T17:34:29.246Z,100374.50
2023-04-01T17:37:33.426Z,100388.03
2023-04-01T17:40:19.668Z,100383.06
2023-04-01T17:43:09.311Z,100363.59
2023-04-01T17:45:57.472Z,100344.25
2023-04-01T17:48:48.290Z,100388.03
2023-04-01T17:51:27.731Z,100382.75
2023-04-01T17:54:46.039Z,100384.56
2023-04-01T17:57:34.978Z,100387.34
2023-04-01T18:00:18.906Z,100387.84
2023-04-01T18:03:23.846Z,100389.84
2023-04-01T18:06:19.997Z,100365.59
2023-04-01T18:09:18.896Z,100374.72
2023-04-01T18:11:54.655Z,100360.50
2023-04-01T18:14:40.475Z,100374.53
2023-04-01T18:17:40.056Z,100376.69
2023-04-01T18:20:20.953Z,100360.00
2023-04-01T18:22:54.932Z,100376.84
2023-04-01T18:25:30.557Z,100366.63
2023-04-01T18:28:19.896Z,100372.72
2023-04-01T18:31:08.484Z,100354.84
2023-04-01T18:33:54.925Z,100374.47
2023-04-01T18:36:26.371Z,100346.91
2023-04-01T18:39:04.503Z,100367.38
2023-04-01T18:41:53.438Z,100368.34
2023-04-01T18:44:44.398Z,100377.06
2023-04-01T18:47:36.367Z,100352.75
2023-04-01T18:50:37.690Z,100371.09
2023-04-01T18:53:39.530Z,100375.66
2023-04-01T18:56:14.647Z,100362.56
2023-04-01T18:58:57.211Z,100351.66
2023-04-01T19:01:39.077Z,100372.47
2023-04-01T19:04:35.082Z,100372.28
2023-04-01T19:07:24.956Z,100326.19
2023-04-01T19:09:53.042Z,100343.19
2023-04-01T19:12:54.586Z,100367.19
2023-04-01T19:15:40.664Z,100369.31
2023-04-01T19:18:45.463Z,100370.66
2023-04-01T19:21:38.981Z,100347.19
2023-04-01T19:24:27.761Z,100369.69
2023-04-01T19:27:05.412Z,100367.38
2023-04-01T19:29:41.835Z,100362.25
2023-04-01T19:32:27.331Z,100362.59
2023-04-01T19:35:15.382Z,100367.25
2023-04-01T19:38:13.450Z,100361.84
2023-04-01T19:40:53.057Z,100352.59
2023-04-01T19:43:40.016Z,100336.28
2023-04-01T19:46:23.753Z,100354.28
2023-04-01T19:49:26.005Z,100356.59
2023-04-01T19:52:12.757Z,100356.59
2023-04-01T19:55:18.564Z,100355.66
2023-04-01T19:58:27.782Z,100353.69
2023-04-01T20:00:59.169Z,100347.56
2023-04-01T20:03:53.760Z,100344.09
2023-04-01T20:06:41.158Z,100329.91
2023-04-01T20:09:34.310Z,100344.97
2023-04-01T20:12:07.906Z,100342.97
2023-04-01T20:14:51.483Z,100332.38
2023-04-01T20:17:27.741Z,100337.03
2023-04-01T20:20:05.425Z,100347.78
2023-04-01T20:22:45.289Z,100353.00
2023-04-01T20:25:27.576Z,100344.94
2023-04-01T20:28:05.441Z,100344.09
2023-04-01T20:30:38.586Z,100337.69
2023-04-01T20:33:44.374Z,100342.16
2023-04-01T20:36:14.677Z,100341.97
2023-04-01T20:39:12.470Z,100344.13
2023-04-01T20:41:48.748Z,100336.06
2023-04-01T20:44:28.556Z,100325.25
2023-04-01T20:46:58.134Z,100341.66
2023-04-01T20:49:49.567Z,100344.94
2023-04-01T20:52:16.674Z,100347.25
2023-04-01T20:55:18.051Z,100336.75
2023-04-01T20:58:11.274Z,100335.91
2023-04-01T21:01:06.656Z,100338.53
2023-04-01T21:04:01.676Z,100341.84
2023-04-01T21:07:01.596Z,100339.34
2023-04-01T21:09:45.648Z,100331.84
2023-04-01T21:12:37.908Z,100339.16
2023-04-01T21:15:30.886Z,100337.13
2023-04-01T21:18:13.226Z,100338.47
2023-04-01T21:21:27.267Z,100340.41
2023-04-01T21:23:56.951Z,100342.59
2023-04-01T21:26:50.047Z,100342.31
2023-04-01T21:29:45.011Z,100308.00
2023-04-01T21:32:29.188Z,100323.13
2023-04-01T21:35:22.266Z,100333.53
2023-04-01T21:38:21.773Z,100347.94
2023-04-01T21:41:21.069Z,100346.66
2023-04-01T21:44:06.886Z,100339.09
2023-04-01T21:47:06.442Z,100342.22
2023-04-01T21:49:55.186Z,100340.94
2023-04-01T21:53:13.568Z,100339.09
2023-04-01T21:55:43.662Z,100348.06
2023-04-01T21:58:19.600Z,100338.47
2023-04-01T22:01:01.929Z,100338.59
2023-04-01T22:03:56.534Z,100329.25
2023-04-01T22:07:01.026Z,100344.50
2023-04-01T22:10:12.991Z,100323.56
2023-04-01T22:12:51.455Z,100336.19
2023-04-01T22:15:30.588Z,100336.31
2023-04-01T22:18:35.429Z,100326.72
2023-04-01T22:21:24.810Z,100330.91
2023-04-01T22:24:24.605Z,100318.97
2023-04-01T22:27:02.496Z,100318.22
2023-04-01T22:29:57.653Z,100323.03
2023-04-01T22:32:51.943Z,100332.16
2023-04-01T22:35:30.819Z,100314.88
2023-04-01T22:38:57.021Z,100311.75
2023-04-01T22:41:34.868Z,100313.22
2023-04-01T22:44:02.158Z,100309.50
2023-04-01T22:46:54.543Z,100311.00
2023-04-01T22:49:29.123Z,100298.09
2023-04-01T22:52:06.565Z,100318.69
2023-04-01T22:54:47.960Z,100299.31
2023-04-01T22:58:16.354Z,100262.72
2023-04-01T23:00:48.238Z,100283.59
2023-04-01T23:03:38.281Z,100289.69
2023-04-01T23:06:06.271Z,100291.56
2023-04-01T23:08:52.381Z,100296.66
2023-04-01T23:11:23.004Z,100296.88
2023-04-01T23:14:19.759Z,100288.44
2023-04-01T23:17:03.835Z,100294.66
2023-04-01T23:19:37.217Z,100292.06
2023-04-01T23:22:47.625Z,100290.53
2023-04-01T23:25:36.853Z,100284.09
2023-04-01T23:28:16.921Z,100287.72
2023-04-01T23:30:43.976Z,100276.63
2023-04-01T23:33:31.990Z,100284.59
2023-04-01T23:36:08.960Z,100283.03
2023-04-01T23:38:40.628Z,100274.66
2023-04-01T23:41:09.281Z,100274.13
2023-04-01T23:43:42.811Z,100278.00
2023-04-01T23:46:10.322Z,100247.28
2023-04-01T23:48:41.145Z,100274.66
2023-04-01T23:51:30.157Z,100267.16
2023-04-01T23:54:14.407Z,100253.09
2023-04-01T23:56:46.839Z,100258.41
2023-04-01T23:59:20.528Z,100246.59
